sensor_id;sensor_type;location;lat;lon;timestamp;pressure;altitude;pressure_sealevel;temperature;humidity
19797;BME280;10058;57.654;12.044;2024-03-17T00:00:04;101426.88;;;3.46;100.00
19797;BME280;10058;57.654;12.044;2024-03-17T00:02:30;101437.13;;;3.05;100.00
19797;BME280;10058;57.654;12.044;2024-03-17T00:04:55;101438.16;;;3.07;100.00
19797;BME280;10058;57.654;12.044;2024-03-17T00:07:20;101446.94;;;2.96;100.00
19797;BME280;10058;57.654;12.044;2024-03-17T00:09:45;101448.19;;;3.14;100.00
19797;BME280;10058;57.654;12.044;2024-03-17T00:12:11;101462.22;;;2.90;100.00
19797;BME280;10058;57.654;12.044;2024-03-17T00:14:37;101456.00;;;3.01;100.00
19797;BME280;10058;57.654;12.044;2024-03-17T00:17:04;101468.69;;;3.08;100.00
19797;BME280;10058;57.654;12.044;2024-03-17T00:19:29;101469.94;;;2.88;100.00
19797;BME280;10058;57.654;12.044;2024-03-17T00:21:54;101471.13;;;3.18;100.00
19797;BME280;10058;57.654;12.044;2024-03-17T00:24:19;101473.00;;;3.45;100.00
19797;BME280;10058;57.654;12.044;2024-03-17T00:26:45;101478.69;;;3.27;100.00
19797;BME280;10058;57.654;12.044;2024-03-17T00:29:10;101472.56;;;3.26;100.00
19797;BME280;10058;57.654;12.044;2024-03-17T00:31:35;101473.16;;;3.22;100.00
19797;BME280;10058;57.654;12.044;2024-03-17T00:34:00;101477.31;;;3.07;100.00
19797;BME280;10058;57.654;12.044;2024-03-17T00:36:25;101490.59;;;3.10;100.00
19797;BME280;10058;57.654;12.044;2024-03-17T00:38:51;101491.41;;;3.09;100.00
19797;BME280;10058;57.654;12.044;2024-03-17T00:41:19;101492.84;;;3.30;100.00
19797;BME280;10058;57.654;12.044;2024-03-17T00:43:44;101492.78;;;3.04;100.00
19797;BME280;10058;57.654;12.044;2024-03-17T00:46:10;101504.06;;;3.16;100.00
19797;BME280;10058;57.654;12.044;2024-03-17T00:48:35;101502.75;;;3.09;100.00
19797;BME280;10058;57.654;12.044;2024-03-17T00:51:00;101514.19;;;2.87;100.00
19797;BME280;10058;57.654;12.044;2024-03-17T00:53:25;101502.03;;;3.12;100.00
19797;BME280;10058;57.654;12.044;2024-03-17T00:55:54;101499.19;;;3.34;100.00
19797;BME280;10058;57.654;12.044;2024-03-17T00:58:22;101504.41;;;3.34;100.00
19797;BME280;10058;57.654;12.044;2024-03-17T01:00:47;101496.47;;;3.32;100.00
19797;BME280;10058;57.654;12.044;2024-03-17T01:03:18;101503.72;;;2.73;100.00
19797;BME280;10058;57.654;12.044;2024-03-17T01:05:44;101510.47;;;3.08;100.00
19797;BME280;10058;57.654;12.044;2024-03-17T01:08:10;101507.09;;;2.97;100.00
19797;BME280;10058;57.654;12.044;2024-03-17T01:10:38;101511.50;;;3.10;100.00
19797;BME280;10058;57.654;12.044;2024-03-17T01:13:05;101501.19;;;3.00;100.00
19797;BME280;10058;57.654;12.044;2024-03-17T01:15:30;101518.25;;;2.95;100.00
19797;BME280;10058;57.654;12.044;2024-03-17T01:17:55;101516.88;;;3.00;100.00
19797;BME280;10058;57.654;12.044;2024-03-17T01:20:20;101521.00;;;3.34;100.00
19797;BME280;10058;57.654;12.044;2024-03-17T01:22:45;101513.66;;;3.04;100.00
19797;BME280;10058;57.654;12.044;2024-03-17T01:25:11;101520.97;;;3.21;100.00
19797;BME280;10058;57.654;12.044;2024-03-17T01:27:36;101514.19;;;2.87;100.00
19797;BME280;10058;57.654;12.044;2024-03-17T01:30:02;101513.06;;;2.83;100.00
19797;BME280;10058;57.654;12.044;2024-03-17T01:32:27;101519.50;;;3.13;100.00
19797;BME280;10058;57.654;12.044;2024-03-17T01:34:52;101518.91;;;3.04;100.00
19797;BME280;10058;57.654;12.044;2024-03-17T01:37:18;101520.78;;;2.93;100.00
19797;BME280;10058;57.654;12.044;2024-03-17T01:39:43;101521.88;;;2.97;100.00
19797;BME280;10058;57.654;12.044;2024-03-17T01:42:08;101522.38;;;2.79;100.00
19797;BME280;10058;57.654;12.044;2024-03-17T01:44:34;101525.13;;;2.81;100.00
19797;BME280;10058;57.654;12.044;2024-03-17T01:46:59;101531.53;;;2.61;100.00
19797;BME280;10058;57.654;12.044;2024-03-17T01:49:25;101527.50;;;2.53;100.00
19797;BME280;10058;57.654;12.044;2024-03-17T01:51:51;101537.25;;;2.80;100.00
19797;BME280;10058;57.654;12.044;2024-03-17T01:54:17;101547.97;;;2.97;100.00
19797;BME280;10058;57.654;12.044;2024-03-17T01:56:42;101550.97;;;2.90;100.00
19797;BME280;10058;57.654;12.044;2024-03-17T01:59:08;101550.19;;;2.91;100.00
19797;BME280;10058;57.654;12.044;2024-03-17T02:01:34;101540.16;;;2.72;100.00
19797;BME280;10058;57.654;12.044;2024-03-17T02:04:00;101537.66;;;2.62;100.00
19797;BME280;10058;57.654;12.044;2024-03-17T02:06:26;101546.03;;;2.69;100.00
19797;BME280;10058;57.654;12.044;2024-03-17T02:08:54;101545.38;;;2.60;100.00
19797;BME280;10058;57.654;12.044;2024-03-17T02:11:37;101557.03;;;2.40;100.00
19797;BME280;10058;57.654;12.044;2024-03-17T02:14:03;101569.50;;;2.33;100.00
19797;BME280;10058;57.654;12.044;2024-03-17T02:16:28;101564.03;;;2.53;100.00
19797;BME280;10058;57.654;12.044;2024-03-17T02:18:54;101565.13;;;2.68;100.00
19797;BME280;10058;57.654;12.044;2024-03-17T02:21:20;101573.66;;;2.54;100.00
19797;BME280;10058;57.654;12.044;2024-03-17T02:23:47;101571.06;;;2.31;100.00
19797;BME280;10058;57.654;12.044;2024-03-17T02:26:13;101578.78;;;2.29;100.00
19797;BME280;10058;57.654;12.044;2024-03-17T02:28:39;101588.41;;;2.54;100.00
19797;BME280;10058;57.654;12.044;2024-03-17T02:31:04;101593.06;;;2.46;100.00
19797;BME280;10058;57.654;12.044;2024-03-17T02:33:30;101600.56;;;2.18;100.00
19797;BME280;10058;57.654;12.044;2024-03-17T02:35:55;101565.19;;;2.10;100.00
19797;BME280;10058;57.654;12.044;2024-03-17T02:38:20;101612.81;;;2.54;100.00
19797;BME280;10058;57.654;12.044;2024-03-17T02:41:05;101616.22;;;2.30;100.00
19797;BME280;10058;57.654;12.044;2024-03-17T02:43:31;101619.84;;;2.32;100.00
19797;BME280;10058;57.654;12.044;2024-03-17T02:45:56;101628.25;;;2.04;100.00
19797;BME280;10058;57.654;12.044;2024-03-17T02:48:22;101621.09;;;2.25;100.00
19797;BME280;10058;57.654;12.044;2024-03-17T02:50:48;101630.41;;;2.22;100.00
19797;BME280;10058;57.654;12.044;2024-03-17T02:53:13;101629.94;;;2.04;100.00
19797;BME280;10058;57.654;12.044;2024-03-17T02:55:39;101633.41;;;1.81;100.00
19797;BME280;10058;57.654;12.044;2024-03-17T02:58:04;101633.44;;;2.28;100.00
19797;BME280;10058;57.654;12.044;2024-03-17T03:00:29;101634.84;;;2.23;100.00
19797;BME280;10058;57.654;12.044;2024-03-17T03:02:55;101632.31;;;2.13;100.00
19797;BME280;10058;57.654;12.044;2024-03-17T03:05:20;101637.09;;;2.06;100.00
19797;BME280;10058;57.654;12.044;2024-03-17T03:07:45;101631.88;;;2.06;100.00
19797;BME280;10058;57.654;12.044;2024-03-17T03:10:10;101640.25;;;2.02;100.00
19797;BME280;10058;57.654;12.044;2024-03-17T03:12:35;101643.19;;;1.95;100.00
19797;BME280;10058;57.654;12.044;2024-03-17T03:15:01;101645.09;;;1.86;100.00
19797;BME280;10058;57.654;12.044;2024-03-17T03:17:26;101653.66;;;2.07;100.00
19797;BME280;10058;57.654;12.044;2024-03-17T03:19:51;101658.13;;;1.86;100.00
19797;BME280;10058;57.654;12.044;2024-03-17T03:22:17;101665.63;;;1.93;100.00
19797;BME280;10058;57.654;12.044;2024-03-17T03:24:42;101659.28;;;1.90;100.00
19797;BME280;10058;57.654;12.044;2024-03-17T03:27:07;101662.47;;;1.97;100.00
19797;BME280;10058;57.654;12.044;2024-03-17T03:29:33;101665.72;;;1.83;100.00
19797;BME280;10058;57.654;12.044;2024-03-17T03:31:58;101673.13;;;2.00;100.00
19797;BME280;10058;57.654;12.044;2024-03-17T03:34:24;101677.31;;;2.10;100.00
19797;BME280;10058;57.654;12.044;2024-03-17T03:36:49;101682.78;;;2.13;100.00
19797;BME280;10058;57.654;12.044;2024-03-17T03:39:14;101679.84;;;1.75;100.00
19797;BME280;10058;57.654;12.044;2024-03-17T03:41:39;101680.31;;;1.81;100.00
19797;BME280;10058;57.654;12.044;2024-03-17T03:44:04;101672.66;;;1.94;100.00
19797;BME280;10058;57.654;12.044;2024-03-17T03:46:30;101677.81;;;1.71;100.00
19797;BME280;10058;57.654;12.044;2024-03-17T03:48:55;101679.69;;;1.95;100.00
19797;BME280;10058;57.654;12.044;2024-03-17T03:51:20;101690.75;;;1.81;100.00
19797;BME280;10058;57.654;12.044;2024-03-17T03:53:46;101690.22;;;1.52;100.00
19797;BME280;10058;57.654;12.044;2024-03-17T03:56:11;101700.16;;;1.79;100.00
19797;BME280;10058;57.654;12.044;2024-03-17T03:58:36;101701.66;;;1.87;100.00
19797;BME280;10058;57.654;12.044;2024-03-17T04:01:05;101702.25;;;1.61;100.00
19797;BME280;10058;57.654;12.044;2024-03-17T04:03:31;101704.91;;;1.73;100.00
19797;BME280;10058;57.654;12.044;2024-03-17T04:06:09;101713.81;;;1.65;100.00
19797;BME280;10058;57.654;12.044;2024-03-17T04:08:35;101714.06;;;1.68;100.00
19797;BME280;10058;57.654;12.044;2024-03-17T04:11:01;101726.19;;;1.46;100.00
19797;BME280;10058;57.654;12.044;2024-03-17T04:13:27;101730.84;;;1.50;100.00
19797;BME280;10058;57.654;12.044;2024-03-17T04:15:54;101723.16;;;1.73;100.00
19797;BME280;10058;57.654;12.044;2024-03-17T04:18:22;101736.25;;;1.63;100.00
19797;BME280;10058;57.654;12.044;2024-03-17T04:20:47;101733.75;;;1.43;100.00
19797;BME280;10058;57.654;12.044;2024-03-17T04:23:12;101734.53;;;1.42;100.00
19797;BME280;10058;57.654;12.044;2024-03-17T04:25:37;101741.53;;;1.53;100.00
19797;BME280;10058;57.654;12.044;2024-03-17T04:28:04;101747.38;;;1.28;100.00
19797;BME280;10058;57.654;12.044;2024-03-17T04:30:29;101748.69;;;1.23;100.00
19797;BME280;10058;57.654;12.044;2024-03-17T04:32:54;101746.78;;;1.43;100.00
19797;BME280;10058;57.654;12.044;2024-03-17T04:35:20;101749.88;;;1.49;100.00
19797;BME280;10058;57.654;12.044;2024-03-17T04:37:45;101752.47;;;1.49;100.00
19797;BME280;10058;57.654;12.044;2024-03-17T04:40:10;101757.53;;;1.25;100.00
19797;BME280;10058;57.654;12.044;2024-03-17T04:42:35;101761.88;;;1.47;100.00
19797;BME280;10058;57.654;12.044;2024-03-17T04:45:00;101772.81;;;1.43;100.00
19797;BME280;10058;57.654;12.044;2024-03-17T04:47:26;101785.38;;;1.36;100.00
19797;BME280;10058;57.654;12.044;2024-03-17T04:49:51;101790.75;;;1.28;100.00
19797;BME280;10058;57.654;12.044;2024-03-17T04:52:16;101798.53;;;1.60;100.00
19797;BME280;10058;57.654;12.044;2024-03-17T04:54:41;101800.25;;;1.27;100.00
19797;BME280;10058;57.654;12.044;2024-03-17T04:57:08;101810.22;;;1.11;100.00
19797;BME280;10058;57.654;12.044;2024-03-17T04:59:33;101811.13;;;1.44;100.00
19797;BME280;10058;57.654;12.044;2024-03-17T05:01:59;101821.94;;;1.16;100.00
19797;BME280;10058;57.654;12.044;2024-03-17T05:04:24;101820.56;;;1.31;100.00
19797;BME280;10058;57.654;12.044;2024-03-17T05:06:49;101829.81;;;1.28;100.00
19797;BME280;10058;57.654;12.044;2024-03-17T05:09:15;101827.84;;;1.35;100.00
19797;BME280;10058;57.654;12.044;2024-03-17T05:11:40;101828.09;;;1.38;100.00
19797;BME280;10058;57.654;12.044;2024-03-17T05:14:06;101836.69;;;1.37;100.00
19797;BME280;10058;57.654;12.044;2024-03-17T05:16:32;101846.91;;;1.14;100.00
19797;BME280;10058;57.654;12.044;2024-03-17T05:18:57;101849.13;;;1.20;100.00
19797;BME280;10058;57.654;12.044;2024-03-17T05:21:22;101852.94;;;1.03;100.00
19797;BME280;10058;57.654;12.044;2024-03-17T05:23:48;101846.41;;;1.18;100.00
19797;BME280;10058;57.654;12.044;2024-03-17T05:26:14;101850.84;;;1.09;100.00
19797;BME280;10058;57.654;12.044;2024-03-17T05:28:39;101858.06;;;1.23;100.00
19797;BME280;10058;57.654;12.044;2024-03-17T05:31:04;101853.59;;;1.00;100.00
19797;BME280;10058;57.654;12.044;2024-03-17T05:33:30;101867.59;;;1.23;100.00
19797;BME280;10058;57.654;12.044;2024-03-17T05:35:56;101860.72;;;1.13;100.00
19797;BME280;10058;57.654;12.044;2024-03-17T05:38:25;101872.41;;;1.28;100.00
19797;BME280;10058;57.654;12.044;2024-03-17T05:40:57;101860.47;;;1.10;100.00
19797;BME280;10058;57.654;12.044;2024-03-17T05:43:24;101893.28;;;1.08;100.00
19797;BME280;10058;57.654;12.044;2024-03-17T05:45:53;101888.06;;;1.08;100.00
19797;BME280;10058;57.654;12.044;2024-03-17T05:48:19;101896.66;;;1.07;100.00
19797;BME280;10058;57.654;12.044;2024-03-17T05:50:44;101895.97;;;1.30;100.00
19797;BME280;10058;57.654;12.044;2024-03-17T05:53:10;101897.78;;;1.31;100.00
19797;BME280;10058;57.654;12.044;2024-03-17T05:55:35;101907.94;;;1.28;100.00
19797;BME280;10058;57.654;12.044;2024-03-17T05:58:01;101908.53;;;1.46;100.00
19797;BME280;10058;57.654;12.044;2024-03-17T06:00:26;101917.34;;;1.16;100.00
19797;BME280;10058;57.654;12.044;2024-03-17T06:02:51;101913.53;;;1.22;100.00
19797;BME280;10058;57.654;12.044;2024-03-17T06:05:17;101917.19;;;1.24;100.00
19797;BME280;10058;57.654;12.044;2024-03-17T06:07:42;101916.63;;;1.49;100.00
19797;BME280;10058;57.654;12.044;2024-03-17T06:10:07;101894.97;;;3.50;100.00
19797;BME280;10058;57.654;12.044;2024-03-17T06:12:32;101860.84;;;4.83;100.00
19797;BME280;10058;57.654;12.044;2024-03-17T06:14:58;101838.69;;;4.92;100.00
19797;BME280;10058;57.654;12.044;2024-03-17T06:17:24;101822.53;;;5.65;100.00
19797;BME280;10058;57.654;12.044;2024-03-17T06:19:51;101809.72;;;5.69;100.00
19797;BME280;10058;57.654;12.044;2024-03-17T06:22:16;101808.22;;;5.59;100.00
19797;BME280;10058;57.654;12.044;2024-03-17T06:24:42;101797.53;;;5.98;100.00
19797;BME280;10058;57.654;12.044;2024-03-17T06:27:07;101830.47;;;3.14;100.00
19797;BME280;10058;57.654;12.044;2024-03-17T06:29:32;101869.19;;;2.40;100.00
19797;BME280;10058;57.654;12.044;2024-03-17T06:31:57;101883.88;;;1.84;100.00
19797;BME280;10058;57.654;12.044;2024-03-17T06:34:22;101891.53;;;2.15;100.00
19797;BME280;10058;57.654;12.044;2024-03-17T06:36:48;101903.16;;;2.30;100.00
19797;BME280;10058;57.654;12.044;2024-03-17T06:39:13;101912.03;;;2.32;100.00
19797;BME280;10058;57.654;12.044;2024-03-17T06:41:40;101912.72;;;2.07;100.00
19797;BME280;10058;57.654;12.044;2024-03-17T06:44:06;101920.19;;;2.25;100.00
19797;BME280;10058;57.654;12.044;2024-03-17T06:46:31;101928.16;;;1.62;100.00
19797;BME280;10058;57.654;12.044;2024-03-17T06:48:56;101928.66;;;2.00;100.00
19797;BME280;10058;57.654;12.044;2024-03-17T06:51:24;101932.16;;;2.01;100.00
19797;BME280;10058;57.654;12.044;2024-03-17T06:53:49;101932.28;;;2.02;100.00
19797;BME280;10058;57.654;12.044;2024-03-17T06:56:15;101933.25;;;2.15;100.00
19797;BME280;10058;57.654;12.044;2024-03-17T06:58:40;101941.44;;;1.97;100.00
19797;BME280;10058;57.654;12.044;2024-03-17T07:01:05;101931.94;;;2.20;100.00
19797;BME280;10058;57.654;12.044;2024-03-17T07:03:31;101925.22;;;2.45;100.00
19797;BME280;10058;57.654;12.044;2024-03-17T07:05:57;101942.00;;;2.37;100.00
19797;BME280;10058;57.654;12.044;2024-03-17T07:08:22;101939.06;;;2.77;100.00
19797;BME280;10058;57.654;12.044;2024-03-17T07:11:21;101940.69;;;2.75;100.00
19797;BME280;10058;57.654;12.044;2024-03-17T07:13:41;101946.69;;;2.74;100.00
19797;BME280;10058;57.654;12.044;2024-03-17T07:16:07;101941.22;;;2.60;100.00
19797;BME280;10058;57.654;12.044;2024-03-17T07:18:32;101937.34;;;2.66;100.00
19797;BME280;10058;57.654;12.044;2024-03-17T07:21:00;101929.66;;;2.79;100.00
19797;BME280;10058;57.654;12.044;2024-03-17T07:23:27;101930.28;;;2.99;100.00
19797;BME280;10058;57.654;12.044;2024-03-17T07:25:56;101946.31;;;2.36;100.00
19797;BME280;10058;57.654;12.044;2024-03-17T07:28:21;101940.09;;;2.79;100.00
19797;BME280;10058;57.654;12.044;2024-03-17T07:30:47;101944.06;;;3.08;100.00
19797;BME280;10058;57.654;12.044;2024-03-17T07:33:13;101941.69;;;2.77;100.00
19797;BME280;10058;57.654;12.044;2024-03-17T07:35:46;101945.50;;;2.59;100.00
19797;BME280;10058;57.654;12.044;2024-03-17T07:38:11;101942.53;;;2.88;100.00
19797;BME280;10058;57.654;12.044;2024-03-17T07:40:36;101955.13;;;2.60;100.00
19797;BME280;10058;57.654;12.044;2024-03-17T07:43:01;101955.78;;;2.24;100.00
19797;BME280;10058;57.654;12.044;2024-03-17T07:45:26;101947.50;;;2.52;100.00
19797;BME280;10058;57.654;12.044;2024-03-17T07:47:51;101947.31;;;2.60;100.00
19797;BME280;10058;57.654;12.044;2024-03-17T07:50:17;101944.09;;;2.74;100.00
19797;BME280;10058;57.654;12.044;2024-03-17T07:52:42;101947.41;;;2.84;100.00
19797;BME280;10058;57.654;12.044;2024-03-17T07:55:07;101945.19;;;2.44;100.00
19797;BME280;10058;57.654;12.044;2024-03-17T07:57:34;101952.34;;;2.47;100.00
19797;BME280;10058;57.654;12.044;2024-03-17T07:59:59;101943.50;;;2.78;100.00
19797;BME280;10058;57.654;12.044;2024-03-17T08:02:24;101947.16;;;2.80;100.00
19797;BME280;10058;57.654;12.044;2024-03-17T08:04:49;101960.47;;;2.62;100.00
19797;BME280;10058;57.654;12.044;2024-03-17T08:07:15;101965.00;;;2.86;100.00
19797;BME280;10058;57.654;12.044;2024-03-17T08:09:40;101975.69;;;2.89;100.00
19797;BME280;10058;57.654;12.044;2024-03-17T08:12:05;101974.25;;;3.16;100.00
19797;BME280;10058;57.654;12.044;2024-03-17T08:14:30;101968.00;;;3.14;100.00
19797;BME280;10058;57.654;12.044;2024-03-17T08:16:56;101968.78;;;3.01;100.00
19797;BME280;10058;57.654;12.044;2024-03-17T08:19:21;101969.59;;;3.12;100.00
19797;BME280;10058;57.654;12.044;2024-03-17T08:21:46;101975.91;;;3.37;100.00
19797;BME280;10058;57.654;12.044;2024-03-17T08:24:11;101974.31;;;3.86;100.00
19797;BME280;10058;57.654;12.044;2024-03-17T08:26:37;101981.59;;;3.43;100.00
19797;BME280;10058;57.654;12.044;2024-03-17T08:29:02;101973.19;;;3.71;100.00
19797;BME280;10058;57.654;12.044;2024-03-17T08:31:27;101982.50;;;3.67;100.00
19797;BME280;10058;57.654;12.044;2024-03-17T08:33:52;101967.72;;;3.68;100.00
19797;BME280;10058;57.654;12.044;2024-03-17T08:36:18;101975.34;;;3.41;100.00
19797;BME280;10058;57.654;12.044;2024-03-17T08:38:44;101970.22;;;3.66;100.00
19797;BME280;10058;57.654;12.044;2024-03-17T08:41:10;101975.66;;;3.81;100.00
19797;BME280;10058;57.654;12.044;2024-03-17T08:43:35;101982.28;;;3.88;100.00
19797;BME280;10058;57.654;12.044;2024-03-17T08:46:04;101975.00;;;3.83;100.00
19797;BME280;10058;57.654;12.044;2024-03-17T08:48:31;101970.44;;;3.81;100.00
19797;BME280;10058;57.654;12.044;2024-03-17T08:50:57;101972.63;;;3.75;100.00
19797;BME280;10058;57.654;12.044;2024-03-17T08:53:23;101983.66;;;3.71;100.00
19797;BME280;10058;57.654;12.044;2024-03-17T08:55:48;101973.16;;;3.82;100.00
19797;BME280;10058;57.654;12.044;2024-03-17T08:58:13;101938.63;;;3.52;100.00
19797;BME280;10058;57.654;12.044;2024-03-17T09:00:39;101975.09;;;3.85;100.00
19797;BME280;10058;57.654;12.044;2024-03-17T09:03:06;101974.78;;;3.92;100.00
19797;BME280;10058;57.654;12.044;2024-03-17T09:05:34;101982.94;;;3.85;100.00
19797;BME280;10058;57.654;12.044;2024-03-17T09:07:59;101981.28;;;4.34;100.00
19797;BME280;10058;57.654;12.044;2024-03-17T09:10:25;101972.22;;;4.17;100.00
19797;BME280;10058;57.654;12.044;2024-03-17T09:12:50;101964.19;;;4.39;100.00
19797;BME280;10058;57.654;12.044;2024-03-17T09:15:15;101927.53;;;4.39;100.00
19797;BME280;10058;57.654;12.044;2024-03-17T09:17:40;101982.69;;;4.17;100.00
19797;BME280;10058;57.654;12.044;2024-03-17T09:20:06;101979.09;;;4.40;100.00
19797;BME280;10058;57.654;12.044;2024-03-17T09:22:36;101973.84;;;4.15;100.00
19797;BME280;10058;57.654;12.044;2024-03-17T09:25:01;101970.16;;;4.25;100.00
19797;BME280;10058;57.654;12.044;2024-03-17T09:27:26;101969.50;;;4.04;100.00
19797;BME280;10058;57.654;12.044;2024-03-17T09:29:52;101969.59;;;4.53;100.00
19797;BME280;10058;57.654;12.044;2024-03-17T09:32:17;101956.34;;;4.39;100.00
19797;BME280;10058;57.654;12.044;2024-03-17T09:34:46;101955.41;;;4.50;100.00
19797;BME280;10058;57.654;12.044;2024-03-17T09:37:13;101948.88;;;4.32;100.00
19797;BME280;10058;57.654;12.044;2024-03-17T09:39:38;101962.53;;;4.28;100.00
19797;BME280;10058;57.654;12.044;2024-03-17T09:42:03;101965.31;;;4.42;100.00
19797;BME280;10058;57.654;12.044;2024-03-17T09:44:30;101962.03;;;3.97;100.00
19797;BME280;10058;57.654;12.044;2024-03-17T09:46:58;101959.84;;;4.14;100.00
19797;BME280;10058;57.654;12.044;2024-03-17T09:49:24;101963.78;;;4.33;100.00
19797;BME280;10058;57.654;12.044;2024-03-17T09:51:49;101964.88;;;4.48;100.00
19797;BME280;10058;57.654;12.044;2024-03-17T09:54:18;101963.56;;;4.18;100.00
19797;BME280;10058;57.654;12.044;2024-03-17T09:56:44;101965.50;;;4.57;100.00
19797;BME280;10058;57.654;12.044;2024-03-17T09:59:09;101960.94;;;4.66;100.00
19797;BME280;10058;57.654;12.044;2024-03-17T10:01:34;101968.34;;;4.60;100.00
19797;BME280;10058;57.654;12.044;2024-03-17T10:03:59;101965.06;;;4.51;100.00
19797;BME280;10058;57.654;12.044;2024-03-17T10:06:28;101969.78;;;4.68;100.00
19797;BME280;10058;57.654;12.044;2024-03-17T10:08:54;101971.13;;;5.00;100.00
19797;BME280;10058;57.654;12.044;2024-03-17T10:11:20;101970.69;;;4.94;100.00
19797;BME280;10058;57.654;12.044;2024-03-17T10:13:46;101978.00;;;5.11;100.00
19797;BME280;10058;57.654;12.044;2024-03-17T10:16:22;101975.84;;;5.05;100.00
19797;BME280;10058;57.654;12.044;2024-03-17T10:18:49;101981.22;;;5.20;100.00
19797;BME280;10058;57.654;12.044;2024-03-17T10:21:26;102002.84;;;4.54;100.00
19797;BME280;10058;57.654;12.044;2024-03-17T10:24:04;101987.13;;;4.66;100.00
19797;BME280;10058;57.654;12.044;2024-03-17T10:26:30;101993.72;;;4.61;100.00
19797;BME280;10058;57.654;12.044;2024-03-17T10:28:55;102003.34;;;4.49;100.00
19797;BME280;10058;57.654;12.044;2024-03-17T10:31:20;101994.75;;;4.88;100.00
19797;BME280;10058;57.654;12.044;2024-03-17T10:33:46;101997.69;;;4.93;100.00
19797;BME280;10058;57.654;12.044;2024-03-17T10:36:25;102007.53;;;4.83;100.00
19797;BME280;10058;57.654;12.044;2024-03-17T10:38:53;101992.97;;;4.75;100.00
19797;BME280;10058;57.654;12.044;2024-03-17T10:41:20;101999.94;;;4.75;100.00
19797;BME280;10058;57.654;12.044;2024-03-17T10:43:46;102019.03;;;4.49;100.00
19797;BME280;10058;57.654;12.044;2024-03-17T10:46:11;102000.59;;;5.22;100.00
19797;BME280;10058;57.654;12.044;2024-03-17T10:48:38;101997.63;;;5.42;100.00
19797;BME280;10058;57.654;12.044;2024-03-17T10:51:04;101997.78;;;5.19;100.00
19797;BME280;10058;57.654;12.044;2024-03-17T10:53:30;101993.13;;;5.15;100.00
19797;BME280;10058;57.654;12.044;2024-03-17T10:56:00;101993.94;;;5.14;100.00
19797;BME280;10058;57.654;12.044;2024-03-17T11:01:02;101985.97;;;5.90;100.00
19797;BME280;10058;57.654;12.044;2024-03-17T11:03:29;101984.19;;;6.02;100.00
19797;BME280;10058;57.654;12.044;2024-03-17T11:05:56;101992.22;;;5.79;100.00
19797;BME280;10058;57.654;12.044;2024-03-17T11:08:22;101972.03;;;5.51;100.00
19797;BME280;10058;57.654;12.044;2024-03-17T11:10:51;101990.97;;;5.47;100.00
19797;BME280;10058;57.654;12.044;2024-03-17T11:13:37;101983.78;;;5.18;100.00
19797;BME280;10058;57.654;12.044;2024-03-17T11:16:04;101987.31;;;5.19;100.00
19797;BME280;10058;57.654;12.044;2024-03-17T11:18:33;101984.50;;;5.29;100.00
19797;BME280;10058;57.654;12.044;2024-03-17T11:23:48;101978.09;;;6.16;100.00
19797;BME280;10058;57.654;12.044;2024-03-17T11:26:25;101982.97;;;5.97;100.00
19797;BME280;10058;57.654;12.044;2024-03-17T11:28:51;101986.28;;;5.94;100.00
19797;BME280;10058;57.654;12.044;2024-03-17T11:31:33;101993.22;;;5.81;100.00
19797;BME280;10058;57.654;12.044;2024-03-17T11:33:59;101994.41;;;5.73;100.00
19797;BME280;10058;57.654;12.044;2024-03-17T11:41:37;101984.97;;;5.88;100.00
19797;BME280;10058;57.654;12.044;2024-03-17T11:46:44;101981.03;;;5.94;100.00
19797;BME280;10058;57.654;12.044;2024-03-17T11:49:22;101982.72;;;6.07;100.00
19797;BME280;10058;57.654;12.044;2024-03-17T11:51:48;101984.53;;;5.55;100.00
19797;BME280;10058;57.654;12.044;2024-03-17T11:54:18;101989.19;;;5.86;100.00
19797;BME280;10058;57.654;12.044;2024-03-17T11:56:47;101976.94;;;6.39;100.00
19797;BME280;10058;57.654;12.044;2024-03-17T11:59:14;101981.28;;;6.39;100.00
19797;BME280;10058;57.654;12.044;2024-03-17T12:01:39;101982.47;;;6.03;100.00
19797;BME280;10058;57.654;12.044;2024-03-17T12:04:05;101974.31;;;6.26;100.00
19797;BME280;10058;57.654;12.044;2024-03-17T12:06:31;101966.72;;;6.44;100.00
19797;BME280;10058;57.654;12.044;2024-03-17T12:11:37;101968.00;;;6.22;100.00
19797;BME280;10058;57.654;12.044;2024-03-17T12:14:15;101958.25;;;6.35;100.00
19797;BME280;10058;57.654;12.044;2024-03-17T12:16:48;101962.25;;;6.43;100.00
19797;BME280;10058;57.654;12.044;2024-03-17T12:19:14;101965.91;;;6.45;100.00
19797;BME280;10058;57.654;12.044;2024-03-17T12:21:42;101976.28;;;6.15;100.00
19797;BME280;10058;57.654;12.044;2024-03-17T12:24:11;101970.75;;;6.52;100.00
19797;BME280;10058;57.654;12.044;2024-03-17T12:26:39;101977.91;;;6.00;100.00
19797;BME280;10058;57.654;12.044;2024-03-17T12:29:04;101969.69;;;6.63;100.00
19797;BME280;10058;57.654;12.044;2024-03-17T12:31:29;101964.66;;;7.09;100.00
19797;BME280;10058;57.654;12.044;2024-03-17T12:33:54;101966.19;;;6.49;100.00
19797;BME280;10058;57.654;12.044;2024-03-17T12:36:19;101949.47;;;6.62;100.00
19797;BME280;10058;57.654;12.044;2024-03-17T12:38:45;101948.44;;;6.73;100.00
19797;BME280;10058;57.654;12.044;2024-03-17T12:41:17;101954.88;;;6.50;100.00
19797;BME280;10058;57.654;12.044;2024-03-17T12:43:48;101958.25;;;6.35;100.00
19797;BME280;10058;57.654;12.044;2024-03-17T12:46:14;101950.50;;;6.79;100.00
19797;BME280;10058;57.654;12.044;2024-03-17T12:48:39;101951.22;;;6.76;100.00
19797;BME280;10058;57.654;12.044;2024-03-17T12:51:04;101961.00;;;7.07;100.00